sensor_id;sensor_type;location;lat;lon;timestamp;temperature;humidity
13389;DHT22;6764;53.250;10.410;2023-04-01T00:02:03;11.30;99.90
13389;DHT22;6764;53.250;10.410;2023-04-01T00:04:28;11.30;99.90
13389;DHT22;6764;53.250;10.410;2023-04-01T00:06:54;11.30;99.90
13389;DHT22;6764;53.250;10.410;2023-04-01T00:09:20;11.30;99.90
13389;DHT22;6764;53.250;10.410;2023-04-01T00:11:45;11.40;99.90
13389;DHT22;6764;53.250;10.410;2023-04-01T00:14:11;11.40;99.90
13389;DHT22;6764;53.250;10.410;2023-04-01T00:16:37;11.50;99.90
13389;DHT22;6764;53.250;10.410;2023-04-01T00:19:03;11.50;99.90
13389;DHT22;6764;53.250;10.410;2023-04-01T00:21:29;11.50;99.90
13389;DHT22;6764;53.250;10.410;2023-04-01T00:23:55;11.50;99.90
13389;DHT22;6764;53.250;10.410;2023-04-01T00:26:21;11.50;99.90
13389;DHT22;6764;53.250;10.410;2023-04-01T00:28:47;11.50;99.90
13389;DHT22;6764;53.250;10.410;2023-04-01T00:31:13;11.50;99.90
13389;DHT22;6764;53.250;10.410;2023-04-01T00:33:40;11.60;99.90
13389;DHT22;6764;53.250;10.410;2023-04-01T00:36:17;11.60;99.90
13389;DHT22;6764;53.250;10.410;2023-04-01T00:38:44;11.60;99.90
13389;DHT22;6764;53.250;10.410;2023-04-01T00:41:11;11.60;99.90
13389;DHT22;6764;53.250;10.410;2023-04-01T00:43:45;11.60;99.90
13389;DHT22;6764;53.250;10.410;2023-04-01T00:46:11;11.60;99.90
13389;DHT22;6764;53.250;10.410;2023-04-01T00:48:41;11.60;99.90
13389;DHT22;6764;53.250;10.410;2023-04-01T00:51:11;11.60;99.90
13389;DHT22;6764;53.250;10.410;2023-04-01T00:53:43;11.50;99.90
13389;DHT22;6764;53.250;10.410;2023-04-01T00:56:16;11.60;99.90
13389;DHT22;6764;53.250;10.410;2023-04-01T00:58:47;11.60;99.90
13389;DHT22;6764;53.250;10.410;2023-04-01T01:01:14;11.50;99.90
13389;DHT22;6764;53.250;10.410;2023-04-01T01:03:40;11.50;99.90
13389;DHT22;6764;53.250;10.410;2023-04-01T01:32:06;11.20;99.90
13389;DHT22;6764;53.250;10.410;2023-04-01T01:37:16;11.10;99.90
13389;DHT22;6764;53.250;10.410;2023-04-01T01:39:45;11.20;99.90
13389;DHT22;6764;53.250;10.410;2023-04-01T01:42:15;11.10;99.90
13389;DHT22;6764;53.250;10.410;2023-04-01T01:44:44;11.20;99.90
13389;DHT22;6764;53.250;10.410;2023-04-01T01:47:11;11.20;99.90
13389;DHT22;6764;53.250;10.410;2023-04-01T01:49:39;11.20;99.90
13389;DHT22;6764;53.250;10.410;2023-04-01T01:52:07;11.20;99.90
13389;DHT22;6764;53.250;10.410;2023-04-01T01:54:32;11.20;99.90
13389;DHT22;6764;53.250;10.410;2023-04-01T01:57:07;11.30;99.90
13389;DHT22;6764;53.250;10.410;2023-04-01T01:59:35;11.30;99.90
13389;DHT22;6764;53.250;10.410;2023-04-01T02:02:03;11.30;99.90
13389;DHT22;6764;53.250;10.410;2023-04-01T02:04:39;11.30;99.90
13389;DHT22;6764;53.250;10.410;2023-04-01T02:07:12;11.30;99.90
13389;DHT22;6764;53.250;10.410;2023-04-01T02:09:39;11.30;99.90
13389;DHT22;6764;53.250;10.410;2023-04-01T02:12:10;11.30;99.90
13389;DHT22;6764;53.250;10.410;2023-04-01T02:14:56;11.30;99.90
13389;DHT22;6764;53.250;10.410;2023-04-01T02:17:30;11.30;99.90
13389;DHT22;6764;53.250;10.410;2023-04-01T02:22:27;11.20;99.90
13389;DHT22;6764;53.250;10.410;2023-04-01T02:24:59;11.20;99.90
13389;DHT22;6764;53.250;10.410;2023-04-01T02:27:26;11.20;99.90
13389;DHT22;6764;53.250;10.410;2023-04-01T02:29:51;11.20;99.90
13389;DHT22;6764;53.250;10.410;2023-04-01T02:32:19;11.20;99.90
13389;DHT22;6764;53.250;10.410;2023-04-01T02:34:46;11.20;99.90
13389;DHT22;6764;53.250;10.410;2023-04-01T02:37:13;11.20;99.90
13389;DHT22;6764;53.250;10.410;2023-04-01T02:39:39;11.20;99.90
13389;DHT22;6764;53.250;10.410;2023-04-01T02:42:05;11.30;99.90
13389;DHT22;6764;53.250;10.410;2023-04-01T02:44:31;11.30;99.90
13389;DHT22;6764;53.250;10.410;2023-04-01T02:46:57;11.30;99.90
13389;DHT22;6764;53.250;10.410;2023-04-01T02:49:22;11.30;99.90
13389;DHT22;6764;53.250;10.410;2023-04-01T02:51:48;11.20;99.90
13389;DHT22;6764;53.250;10.410;2023-04-01T02:54:13;11.20;99.90
13389;DHT22;6764;53.250;10.410;2023-04-01T02:56:39;11.10;99.90
13389;DHT22;6764;53.250;10.410;2023-04-01T02:59:05;11.20;99.90
13389;DHT22;6764;53.250;10.410;2023-04-01T03:01:31;11.20;99.90
13389;DHT22;6764;53.250;10.410;2023-04-01T03:03:56;11.20;99.90
13389;DHT22;6764;53.250;10.410;2023-04-01T03:06:22;11.30;99.90
13389;DHT22;6764;53.250;10.410;2023-04-01T03:08:48;11.30;99.90
13389;DHT22;6764;53.250;10.410;2023-04-01T03:11:13;11.30;99.90
13389;DHT22;6764;53.250;10.410;2023-04-01T03:13:39;11.40;99.90
13389;DHT22;6764;53.250;10.410;2023-04-01T03:16:05;11.30;99.90
13389;DHT22;6764;53.250;10.410;2023-04-01T03:18:30;11.30;99.90
13389;DHT22;6764;53.250;10.410;2023-04-01T03:20:56;11.30;99.90
13389;DHT22;6764;53.250;10.410;2023-04-01T03:23:22;11.30;99.90
13389;DHT22;6764;53.250;10.410;2023-04-01T03:25:49;11.30;99.90
13389;DHT22;6764;53.250;10.410;2023-04-01T03:28:15;11.40;99.90
13389;DHT22;6764;53.250;10.410;2023-04-01T03:30:41;11.40;99.90
13389;DHT22;6764;53.250;10.410;2023-04-01T03:33:06;11.30;99.90
13389;DHT22;6764;53.250;10.410;2023-04-01T03:35:32;11.40;99.90
13389;DHT22;6764;53.250;10.410;2023-04-01T03:37:58;11.30;99.90
13389;DHT22;6764;53.250;10.410;2023-04-01T03:40:24;11.30;99.90
13389;DHT22;6764;53.250;10.410;2023-04-01T03:42:51;11.40;99.90
13389;DHT22;6764;53.250;10.410;2023-04-01T03:45:18;11.40;99.90
13389;DHT22;6764;53.250;10.410;2023-04-01T03:47:44;11.30;99.90
13389;DHT22;6764;53.250;10.410;2023-04-01T03:50:09;11.40;99.90
13389;DHT22;6764;53.250;10.410;2023-04-01T03:52:35;11.40;99.90
13389;DHT22;6764;53.250;10.410;2023-04-01T03:55:01;11.40;99.90
13389;DHT22;6764;53.250;10.410;2023-04-01T03:57:27;11.40;99.90
13389;DHT22;6764;53.250;10.410;2023-04-01T03:59:53;11.40;99.90
13389;DHT22;6764;53.250;10.410;2023-04-01T04:02:19;11.30;99.90
13389;DHT22;6764;53.250;10.410;2023-04-01T04:04:45;11.20;99.90
13389;DHT22;6764;53.250;10.410;2023-04-01T04:07:12;11.30;99.90
13389;DHT22;6764;53.250;10.410;2023-04-01T04:09:38;11.30;99.90
13389;DHT22;6764;53.250;10.410;2023-04-01T04:12:03;11.30;99.90
13389;DHT22;6764;53.250;10.410;2023-04-01T04:14:31;11.30;99.90
13389;DHT22;6764;53.250;10.410;2023-04-01T04:16:56;11.30;99.90
13389;DHT22;6764;53.250;10.410;2023-04-01T04:19:22;11.40;99.90
13389;DHT22;6764;53.250;10.410;2023-04-01T04:21:48;11.30;99.90
13389;DHT22;6764;53.250;10.410;2023-04-01T04:24:13;11.30;99.90
13389;DHT22;6764;53.250;10.410;2023-04-01T04:26:39;11.30;99.90
13389;DHT22;6764;53.250;10.410;2023-04-01T04:29:05;11.30;99.90
13389;DHT22;6764;53.250;10.410;2023-04-01T04:31:30;11.30;99.90
13389;DHT22;6764;53.250;10.410;2023-04-01T04:33:56;11.40;99.90
13389;DHT22;6764;53.250;10.410;2023-04-01T04:36:23;11.40;99.90
13389;DHT22;6764;53.250;10.410;2023-04-01T04:38:49;11.30;99.90
13389;DHT22;6764;53.250;10.410;2023-04-01T04:41:16;11.30;99.90
13389;DHT22;6764;53.250;10.410;2023-04-01T04:43:52;11.30;99.90
13389;DHT22;6764;53.250;10.410;2023-04-01T04:46:18;11.30;99.90
13389;DHT22;6764;53.250;10.410;2023-04-01T04:48:44;11.30;99.90
13389;DHT22;6764;53.250;10.410;2023-04-01T04:51:14;11.30;99.90
13389;DHT22;6764;53.250;10.410;2023-04-01T04:53:40;11.30;99.90
13389;DHT22;6764;53.250;10.410;2023-04-01T04:56:06;11.30;99.90
13389;DHT22;6764;53.250;10.410;2023-04-01T04:58:32;11.30;99.90
13389;DHT22;6764;53.250;10.410;2023-04-01T05:00:57;11.30;99.90
13389;DHT22;6764;53.250;10.410;2023-04-01T05:03:23;11.30;99.90
13389;DHT22;6764;53.250;10.410;2023-04-01T05:05:50;11.30;99.90
13389;DHT22;6764;53.250;10.410;2023-04-01T05:08:17;11.30;99.90
13389;DHT22;6764;53.250;10.410;2023-04-01T05:10:42;11.30;99.90
13389;DHT22;6764;53.250;10.410;2023-04-01T05:13:08;11.30;99.90
13389;DHT22;6764;53.250;10.410;2023-04-01T05:15:35;11.30;99.90
13389;DHT22;6764;53.250;10.410;2023-04-01T05:18:00;11.30;99.90
13389;DHT22;6764;53.250;10.410;2023-04-01T05:20:26;11.30;99.90
13389;DHT22;6764;53.250;10.410;2023-04-01T05:22:56;11.30;99.90
13389;DHT22;6764;53.250;10.410;2023-04-01T05:25:22;11.30;99.90
13389;DHT22;6764;53.250;10.410;2023-04-01T05:27:47;11.40;99.90
13389;DHT22;6764;53.250;10.410;2023-04-01T05:30:13;11.40;99.90
13389;DHT22;6764;53.250;10.410;2023-04-01T05:32:38;11.40;99.90
13389;DHT22;6764;53.250;10.410;2023-04-01T05:35:04;11.40;99.90
13389;DHT22;6764;53.250;10.410;2023-04-01T05:37:30;11.40;99.90
13389;DHT22;6764;53.250;10.410;2023-04-01T05:39:56;11.50;99.90
13389;DHT22;6764;53.250;10.410;2023-04-01T05:42:23;11.50;99.90
13389;DHT22;6764;53.250;10.410;2023-04-01T05:44:49;11.60;99.90
13389;DHT22;6764;53.250;10.410;2023-04-01T05:47:15;11.60;99.90
13389;DHT22;6764;53.250;10.410;2023-04-01T05:49:41;11.60;99.90
13389;DHT22;6764;53.250;10.410;2023-04-01T05:52:06;11.60;99.90
13389;DHT22;6764;53.250;10.410;2023-04-01T05:54:33;11.60;99.90
13389;DHT22;6764;53.250;10.410;2023-04-01T05:56:58;11.60;99.90
13389;DHT22;6764;53.250;10.410;2023-04-01T05:59:25;11.60;99.90
13389;DHT22;6764;53.250;10.410;2023-04-01T06:01:51;11.70;99.90
13389;DHT22;6764;53.250;10.410;2023-04-01T06:04:17;11.60;99.90
13389;DHT22;6764;53.250;10.410;2023-04-01T06:06:43;11.60;99.90
13389;DHT22;6764;53.250;10.410;2023-04-01T06:09:17;11.70;99.90
13389;DHT22;6764;53.250;10.410;2023-04-01T06:11:57;11.70;99.90
13389;DHT22;6764;53.250;10.410;2023-04-01T06:15:01;11.70;99.90
13389;DHT22;6764;53.250;10.410;2023-04-01T06:20:53;11.90;99.90
13389;DHT22;6764;53.250;10.410;2023-04-01T06:29:19;11.80;99.90
13389;DHT22;6764;53.250;10.410;2023-04-01T06:32:02;11.80;99.90
13389;DHT22;6764;53.250;10.410;2023-04-01T06:39:54;11.70;99.90
13389;DHT22;6764;53.250;10.410;2023-04-01T06:42:36;11.70;99.90
13389;DHT22;6764;53.250;10.410;2023-04-01T06:50:44;11.70;99.90
13389;DHT22;6764;53.250;10.410;2023-04-01T06:55:59;11.20;99.90
13389;DHT22;6764;53.250;10.410;2023-04-01T06:58:40;11.00;99.90
13389;DHT22;6764;53.250;10.410;2023-04-01T07:01:12;10.80;99.90
13389;DHT22;6764;53.250;10.410;2023-04-01T07:03:47;10.60;99.90
13389;DHT22;6764;53.250;10.410;2023-04-01T07:06:26;10.50;99.90
13389;DHT22;6764;53.250;10.410;2023-04-01T07:08:55;10.40;99.90
13389;DHT22;6764;53.250;10.410;2023-04-01T07:11:31;10.30;99.90
13389;DHT22;6764;53.250;10.410;2023-04-01T07:22:46;10.20;99.90
13389;DHT22;6764;53.250;10.410;2023-04-01T07:25:45;10.10;99.90
13389;DHT22;6764;53.250;10.410;2023-04-01T07:28:15;9.80;99.90
13389;DHT22;6764;53.250;10.410;2023-04-01T07:44:34;9.50;99.90
13389;DHT22;6764;53.250;10.410;2023-04-01T07:47:09;9.40;99.90
13389;DHT22;6764;53.250;10.410;2023-04-01T07:49:49;9.20;99.90
13389;DHT22;6764;53.250;10.410;2023-04-01T07:52:30;9.10;99.90
13389;DHT22;6764;53.250;10.410;2023-04-01T07:55:23;9.10;99.90
13389;DHT22;6764;53.250;10.410;2023-04-01T08:00:59;9.20;99.90
13389;DHT22;6764;53.250;10.410;2023-04-01T08:06:20;9.10;99.90
13389;DHT22;6764;53.250;10.410;2023-04-01T08:14:23;9.20;99.90
13389;DHT22;6764;53.250;10.410;2023-04-01T08:17:05;9.10;99.90
13389;DHT22;6764;53.250;10.410;2023-04-01T08:22:37;9.10;99.90
13389;DHT22;6764;53.250;10.410;2023-04-01T08:25:06;9.30;99.90
13389;DHT22;6764;53.250;10.410;2023-04-01T08:27:43;9.10;99.90
13389;DHT22;6764;53.250;10.410;2023-04-01T08:30:25;9.10;99.90
13389;DHT22;6764;53.250;10.410;2023-04-01T08:33:01;9.20;99.90
13389;DHT22;6764;53.250;10.410;2023-04-01T08:35:34;9.10;99.90
13389;DHT22;6764;53.250;10.410;2023-04-01T08:38:11;9.00;99.90
13389;DHT22;6764;53.250;10.410;2023-04-01T08:41:10;9.10;99.90
13389;DHT22;6764;53.250;10.410;2023-04-01T08:46:40;8.90;99.90
13389;DHT22;6764;53.250;10.410;2023-04-01T08:49:30;8.70;99.90
13389;DHT22;6764;53.250;10.410;2023-04-01T08:55:43;8.80;99.90
13389;DHT22;6764;53.250;10.410;2023-04-01T09:00:54;9.00;99.90
13389;DHT22;6764;53.250;10.410;2023-04-01T09:03:52;9.00;99.90
13389;DHT22;6764;53.250;10.410;2023-04-01T09:06:44;9.00;99.90
13389;DHT22;6764;53.250;10.410;2023-04-01T09:17:51;9.00;99.90
13389;DHT22;6764;53.250;10.410;2023-04-01T09:21:28;9.20;99.90
13389;DHT22;6764;53.250;10.410;2023-04-01T09:26:27;9.10;99.90
13389;DHT22;6764;53.250;10.410;2023-04-01T09:32:01;8.80;99.90
13389;DHT22;6764;53.250;10.410;2023-04-01T09:37:29;9.10;99.90
13389;DHT22;6764;53.250;10.410;2023-04-01T09:40:18;8.80;99.90
13389;DHT22;6764;53.250;10.410;2023-04-01T09:42:56;8.70;99.90
13389;DHT22;6764;53.250;10.410;2023-04-01T09:45:47;8.70;99.90
13389;DHT22;6764;53.250;10.410;2023-04-01T09:48:37;8.70;99.90
13389;DHT22;6764;53.250;10.410;2023-04-01T10:11:22;8.90;99.90
13389;DHT22;6764;53.250;10.410;2023-04-01T10:22:04;8.80;99.90
13389;DHT22;6764;53.250;10.410;2023-04-01T10:31:13;8.80;99.90
13389;DHT22;6764;53.250;10.410;2023-04-01T10:34:13;8.90;99.90
13389;DHT22;6764;53.250;10.410;2023-04-01T10:36:57;8.90;99.90
13389;DHT22;6764;53.250;10.410;2023-04-01T10:42:39;9.10;99.90
13389;DHT22;6764;53.250;10.410;2023-04-01T10:56:39;9.10;99.90
13389;DHT22;6764;53.250;10.410;2023-04-01T11:08:29;8.80;99.90
13389;DHT22;6764;53.250;10.410;2023-04-01T11:11:16;8.80;99.90
13389;DHT22;6764;53.250;10.410;2023-04-01T11:13:50;9.00;99.90
13389;DHT22;6764;53.250;10.410;2023-04-01T11:30:20;9.20;99.90
13389;DHT22;6764;53.250;10.410;2023-04-01T11:39:11;9.10;99.90
13389;DHT22;6764;53.250;10.410;2023-04-01T11:45:25;8.90;99.90
13389;DHT22;6764;53.250;10.410;2023-04-01T11:47:54;9.00;99.90
13389;DHT22;6764;53.250;10.410;2023-04-01T12:04:58;9.00;99.90
13389;DHT22;6764;53.250;10.410;2023-04-01T12:37:28;8.90;99.90
13389;DHT22;6764;53.250;10.410;2023-04-01T12:43:01;8.80;99.90
13389;DHT22;6764;53.250;10.410;2023-04-01T12:45:40;8.80;99.90
13389;DHT22;6764;53.250;10.410;2023-04-01T12:53:36;8.70;99.90
13389;DHT22;6764;53.250;10.410;2023-04-01T12:56:13;8.70;99.90
13389;DHT22;6764;53.250;10.410;2023-04-01T13:10:13;8.80;99.90
13389;DHT22;6764;53.250;10.410;2023-04-01T13:15:47;8.80;99.90
13389;DHT22;6764;53.250;10.410;2023-04-01T13:18:50;8.90;99.90
13389;DHT22;6764;53.250;10.410;2023-04-01T13:29:38;8.70;99.90
13389;DHT22;6764;53.250;10.410;2023-04-01T13:32:36;8.70;99.90
13389;DHT22;6764;53.250;10.410;2023-04-01T13:42:59;8.60;99.90
13389;DHT22;6764;53.250;10.410;2023-04-01T13:45:42;8.30;99.90
13389;DHT22;6764;53.250;10.410;2023-04-01T13:48:28;8.20;99.90
13389;DHT22;6764;53.250;10.410;2023-04-01T13:59:44;8.10;99.90
13389;DHT22;6764;53.250;10.410;2023-04-01T14:02:11;8.10;99.90
13389;DHT22;6764;53.250;10.410;2023-04-01T14:05:07;8.10;99.90
13389;DHT22;6764;53.250;10.410;2023-04-01T14:10:40;7.90;99.90
13389;DHT22;6764;53.250;10.410;2023-04-01T14:18:33;8.00;99.90
13389;DHT22;6764;53.250;10.410;2023-04-01T14:23:51;7.70;99.90
13389;DHT22;6764;53.250;10.410;2023-04-01T14:26:50;7.70;99.90
13389;DHT22;6764;53.250;10.410;2023-04-01T14:37:55;7.70;99.90
13389;DHT22;6764;53.250;10.410;2023-04-01T14:40:44;7.80;99.90
13389;DHT22;6764;53.250;10.410;2023-04-01T14:49:33;7.50;99.90
13389;DHT22;6764;53.250;10.410;2023-04-01T14:52:15;7.60;99.90
13389;DHT22;6764;53.250;10.410;2023-04-01T14:54:44;7.50;99.90
13389;DHT22;6764;53.250;10.410;2023-04-01T14:57:31;7.60;99.90
13389;DHT22;6764;53.250;10.410;2023-04-01T15:02:57;7.60;99.90
13389;DHT22;6764;53.250;10.410;2023-04-01T15:05:44;7.60;99.90
13389;DHT22;6764;53.250;10.410;2023-04-01T15:08:32;7.40;99.90
13389;DHT22;6764;53.250;10.410;2023-04-01T15:11:13;7.50;99.90
13389;DHT22;6764;53.250;10.410;2023-04-01T15:19:48;7.50;99.90
13389;DHT22;6764;53.250;10.410;2023-04-01T15:22:49;7.50;99.90
13389;DHT22;6764;53.250;10.410;2023-04-01T15:31:58;7.40;99.90
13389;DHT22;6764;53.250;10.410;2023-04-01T15:34:26;7.50;99.90
13389;DHT22;6764;53.250;10.410;2023-04-01T15:45:16;7.60;99.90
13389;DHT22;6764;53.250;10.410;2023-04-01T15:47:46;7.70;99.90
13389;DHT22;6764;53.250;10.410;2023-04-01T15:56:16;7.50;99.90
13389;DHT22;6764;53.250;10.410;2023-04-01T16:15:28;7.60;99.90
13389;DHT22;6764;53.250;10.410;2023-04-01T16:21:00;7.40;99.90
13389;DHT22;6764;53.250;10.410;2023-04-01T16:23:37;7.40;99.90
13389;DHT22;6764;53.250;10.410;2023-04-01T16:26:09;7.20;99.90
13389;DHT22;6764;53.250;10.410;2023-04-01T16:28:59;7.10;99.90
13389;DHT22;6764;53.250;10.410;2023-04-01T16:31:42;7.20;99.90
13389;DHT22;6764;53.250;10.410;2023-04-01T16:34:21;7.20;99.90
13389;DHT22;6764;53.250;10.410;2023-04-01T16:42:44;7.10;99.90
13389;DHT22;6764;53.250;10.410;2023-04-01T16:45:40;7.00;99.90
13389;DHT22;6764;53.250;10.410;2023-04-01T16:48:11;7.00;99.90
13389;DHT22;6764;53.250;10.410;2023-04-01T16:55:50;6.70;99.90
13389;DHT22;6764;53.250;10.410;2023-04-01T16:58:26;6.60;99.90
13389;DHT22;6764;53.250;10.410;2023-04-01T17:01:00;6.70;99.90
13389;DHT22;6764;53.250;10.410;2023-04-01T17:03:43;6.70;99.90
13389;DHT22;6764;53.250;10.410;2023-04-01T17:09:20;6.50;99.90
13389;DHT22;6764;53.250;10.410;2023-04-01T17:12:10;6.60;99.90
13389;DHT22;6764;53.250;10.410;2023-04-01T17:17:29;6.50;99.90
13389;DHT22;6764;53.250;10.410;2023-04-01T17:28:31;6.30;99.90
13389;DHT22;6764;53.250;10.410;2023-04-01T17:31:27;6.40;99.90
13389;DHT22;6764;53.250;10.410;2023-04-01T17:37:27;6.20;99.90
13389;DHT22;6764;53.250;10.410;2023-04-01T17:39:54;6.10;99.90
13389;DHT22;6764;53.250;10.410;2023-04-01T17:51:05;5.80;99.90
13389;DHT22;6764;53.250;10.410;2023-04-01T17:53:35;5.90;99.90
13389;DHT22;6764;53.250;10.410;2023-04-01T18:01:48;6.00;99.90
13389;DHT22;6764;53.250;10.410;2023-04-01T18:07:50;6.00;99.90
13389;DHT22;6764;53.250;10.410;2023-04-01T18:15:25;5.80;99.90
13389;DHT22;6764;53.250;10.410;2023-04-01T18:24:00;5.80;99.90
13389;DHT22;6764;53.250;10.410;2023-04-01T18:26:33;5.70;99.90
13389;DHT22;6764;53.250;10.410;2023-04-01T18:32:23;5.70;99.90
13389;DHT22;6764;53.250;10.410;2023-04-01T18:34:54;5.80;99.90
13389;DHT22;6764;53.250;10.410;2023-04-01T18:37:42;5.90;99.90
13389;DHT22;6764;53.250;10.410;2023-04-01T18:41:18;5.90;99.90
13389;DHT22;6764;53.250;10.410;2023-04-01T18:43:20;5.90;99.90
13389;DHT22;6764;53.250;10.410;2023-04-01T18:46:03;5.90;99.90
13389;DHT22;6764;53.250;10.410;2023-04-01T18:56:49;5.70;99.90
13389;DHT22;6764;53.250;10.410;2023-04-01T18:59:26;5.60;99.90
13389;DHT22;6764;53.250;10.410;2023-04-01T19:05:04;5.60;99.90
13389;DHT22;6764;53.250;10.410;2023-04-01T19:21:25;5.60;99.90
13389;DHT22;6764;53.250;10.410;2023-04-01T19:27:06;5.70;99.90
13389;DHT22;6764;53.250;10.410;2023-04-01T19:37:40;5.70;99.90
13389;DHT22;6764;53.250;10.410;2023-04-01T19:45:29;5.50;99.90
13389;DHT22;6764;53.250;10.410;2023-04-01T19:48:49;5.40;99.90
13389;DHT22;6764;53.250;10.410;2023-04-01T19:51:08;5.30;99.90
13389;DHT22;6764;53.250;10.410;2023-04-01T19:56:39;5.40;99.90
13389;DHT22;6764;53.250;10.410;2023-04-01T19:59:13;5.40;99.90
13389;DHT22;6764;53.250;10.410;2023-04-01T20:04:44;5.30;99.90
13389;DHT22;6764;53.250;10.410;2023-04-01T20:07:26;5.30;99.90
13389;DHT22;6764;53.250;10.410;2023-04-01T20:15:37;5.20;99.90
13389;DHT22;6764;53.250;10.410;2023-04-01T20:21:20;5.10;99.90
13389;DHT22;6764;53.250;10.410;2023-04-01T20:26:25;5.10;99.90
13389;DHT22;6764;53.250;10.410;2023-04-01T20:29:13;5.20;99.90
13389;DHT22;6764;53.250;10.410;2023-04-01T20:31:41;5.20;99.90
13389;DHT22;6764;53.250;10.410;2023-04-01T20:40:23;5.20;99.90
13389;DHT22;6764;53.250;10.410;2023-04-01T20:51:31;5.00;99.90
13389;DHT22;6764;53.250;10.410;2023-04-01T20:57:05;4.80;99.90
13389;DHT22;6764;53.250;10.410;2023-04-01T21:07:42;4.30;99.90
13389;DHT22;6764;53.250;10.410;2023-04-01T21:30:17;4.40;99.90
13389;DHT22;6764;53.250;10.410;2023-04-01T21:36:00;4.00;99.90
13389;DHT22;6764;53.250;10.410;2023-04-01T21:41:11;3.90;99.90
13389;DHT22;6764;53.250;10.410;2023-04-01T21:43:58;3.90;99.90
13389;DHT22;6764;53.250;10.410;2023-04-01T21:52:15;3.90;99.90
13389;DHT22;6764;53.250;10.410;2023-04-01T22:00:23;3.80;99.90
13389;DHT22;6764;53.250;10.410;2023-04-01T22:13:41;3.60;99.90
13389;DHT22;6764;53.250;10.410;2023-04-01T22:17:19;3.60;99.90
13389;DHT22;6764;53.250;10.410;2023-04-01T22:19:19;3.70;99.90
13389;DHT22;6764;53.250;10.410;2023-04-01T22:22:08;3.60;99.90
13389;DHT22;6764;53.250;10.410;2023-04-01T22:32:46;3.50;99.90
13389;DHT22;6764;53.250;10.410;2023-04-01T22:35:22;3.40;99.90
13389;DHT22;6764;53.250;10.410;2023-04-01T22:38:30;3.30;99.90
13389;DHT22;6764;53.250;10.410;2023-04-01T22:43:45;3.30;99.90
13389;DHT22;6764;53.250;10.410;2023-04-01T22:49:17;3.50;99.90
13389;DHT22;6764;53.250;10.410;2023-04-01T22:56:57;3.30;99.90
13389;DHT22;6764;53.250;10.410;2023-04-01T22:59:55;3.20;99.90
13389;DHT22;6764;53.250;10.410;2023-04-01T23:04:54;3.20;99.90
13389;DHT22;6764;53.250;10.410;2023-04-01T23:07:52;3.30;99.90
13389;DHT22;6764;53.250;10.410;2023-04-01T23:10:42;3.20;99.90
13389;DHT22;6764;53.250;10.410;2023-04-01T23:13:18;3.20;99.90
13389;DHT22;6764;53.250;10.410;2023-04-01T23:15:46;3.30;99.90
13389;DHT22;6764;53.250;10.410;2023-04-01T23:18:27;3.20;99.90
13389;DHT22;6764;53.250;10.410;2023-04-01T23:21:02;3.20;99.90
13389;DHT22;6764;53.250;10.410;2023-04-01T23:25:56;3.10;99.90
13389;DHT22;6764;53.250;10.410;2023-04-01T23:28:41;3.30;99.90
13389;DHT22;6764;53.250;10.410;2023-04-01T23:36:41;3.10;99.90
13389;DHT22;6764;53.250;10.410;2023-04-01T23:39:25;3.00;99.90
13389;DHT22;6764;53.250;10.410;2023-04-01T23:41:54;3.10;99.90
13389;DHT22;6764;53.250;10.410;2023-04-01T23:44:24;3.20;99.90
13389;DHT22;6764;53.250;10.410;2023-04-01T23:46:50;3.20;99.90
13389;DHT22;6764;53.250;10.410;2023-04-01T23:49:25;3.10;99.90
13389;DHT22;6764;53.250;10.410;2023-04-01T23:51:57;3.10;99.90
13389;DHT22;6764;53.250;10.410;2023-04-01T23:57:22;3.10;99.90
